sensor_id;sensor_type;location;lat;lon;timestamp;P1;durP1;ratioP1;P2;durP2;ratioP2
3979;SDS011;2004;52.452;13.120;2022-12-29T00:02:11;2.37;;;1.77;;
3979;SDS011;2004;52.452;13.120;2022-12-29T00:10:03;1.60;;;1.50;;
3979;SDS011;2004;52.452;13.120;2022-12-29T00:17:53;2.43;;;1.63;;
3979;SDS011;2004;52.452;13.120;2022-12-29T00:25:44;1.47;;;1.37;;
3979;SDS011;2004;52.452;13.120;2022-12-29T00:33:54;5.10;;;1.80;;
3979;SDS011;2004;52.452;13.120;2022-12-29T00:42:04;1.83;;;1.50;;
3979;SDS011;2004;52.452;13.120;2022-12-29T00:50:14;2.13;;;1.77;;
3979;SDS011;2004;52.452;13.120;2022-12-29T00:58:05;2.87;;;1.57;;
3979;SDS011;2004;52.452;13.120;2022-12-29T01:05:55;2.40;;;1.60;;
3979;SDS011;2004;52.452;13.120;2022-12-29T01:13:52;1.60;;;1.50;;
3979;SDS011;2004;52.452;13.120;2022-12-29T01:21:44;2.00;;;1.27;;
3979;SDS011;2004;52.452;13.120;2022-12-29T01:29:35;1.60;;;1.50;;
3979;SDS011;2004;52.452;13.120;2022-12-29T01:37:26;1.60;;;1.43;;
3979;SDS011;2004;52.452;13.120;2022-12-29T01:45:17;1.70;;;1.23;;
3979;SDS011;2004;52.452;13.120;2022-12-29T01:53:13;1.43;;;1.33;;
3979;SDS011;2004;52.452;13.120;2022-12-29T02:01:09;2.10;;;1.47;;
3979;SDS011;2004;52.452;13.120;2022-12-29T02:09:00;1.60;;;1.50;;
3979;SDS011;2004;52.452;13.120;2022-12-29T02:25:28;1.67;;;1.57;;
3979;SDS011;2004;52.452;13.120;2022-12-29T02:57:47;1.33;;;1.23;;
3979;SDS011;2004;52.452;13.120;2022-12-29T03:13:49;2.07;;;1.23;;
3979;SDS011;2004;52.452;13.120;2022-12-29T03:22:08;3.03;;;1.20;;
3979;SDS011;2004;52.452;13.120;2022-12-29T03:30:20;1.53;;;1.37;;
3979;SDS011;2004;52.452;13.120;2022-12-29T03:38:16;1.10;;;1.10;;
3979;SDS011;2004;52.452;13.120;2022-12-29T03:46:13;1.33;;;1.23;;
3979;SDS011;2004;52.452;13.120;2022-12-29T03:54:03;10.50;;;1.40;;
3979;SDS011;2004;52.452;13.120;2022-12-29T04:01:55;1.63;;;1.50;;
3979;SDS011;2004;52.452;13.120;2022-12-29T04:09:46;3.33;;;1.27;;
3979;SDS011;2004;52.452;13.120;2022-12-29T04:17:36;1.30;;;1.20;;
3979;SDS011;2004;52.452;13.120;2022-12-29T04:25:28;1.57;;;1.47;;
3979;SDS011;2004;52.452;13.120;2022-12-29T04:33:20;1.70;;;1.60;;
3979;SDS011;2004;52.452;13.120;2022-12-29T04:41:12;1.83;;;1.43;;
3979;SDS011;2004;52.452;13.120;2022-12-29T04:49:03;1.83;;;1.30;;
3979;SDS011;2004;52.452;13.120;2022-12-29T04:56:58;1.60;;;1.47;;
3979;SDS011;2004;52.452;13.120;2022-12-29T05:04:49;1.70;;;1.30;;
3979;SDS011;2004;52.452;13.120;2022-12-29T05:12:39;1.50;;;1.40;;
3979;SDS011;2004;52.452;13.120;2022-12-29T05:20:30;2.73;;;1.80;;
3979;SDS011;2004;52.452;13.120;2022-12-29T05:28:21;3.40;;;1.70;;
3979;SDS011;2004;52.452;13.120;2022-12-29T05:36:11;4.00;;;1.70;;
3979;SDS011;2004;52.452;13.120;2022-12-29T05:44:02;1.77;;;1.60;;
3979;SDS011;2004;52.452;13.120;2022-12-29T05:51:53;2.40;;;1.30;;
3979;SDS011;2004;52.452;13.120;2022-12-29T05:59:43;1.50;;;1.40;;
3979;SDS011;2004;52.452;13.120;2022-12-29T06:07:34;3.33;;;1.40;;
3979;SDS011;2004;52.452;13.120;2022-12-29T06:15:24;1.27;;;1.13;;
3979;SDS011;2004;52.452;13.120;2022-12-29T06:23:15;5.70;;;1.47;;
3979;SDS011;2004;52.452;13.120;2022-12-29T06:31:09;1.57;;;1.00;;
3979;SDS011;2004;52.452;13.120;2022-12-29T06:39:01;2.10;;;1.27;;
3979;SDS011;2004;52.452;13.120;2022-12-29T06:46:52;3.80;;;1.20;;
3979;SDS011;2004;52.452;13.120;2022-12-29T06:54:43;1.53;;;1.40;;
3979;SDS011;2004;52.452;13.120;2022-12-29T07:02:34;1.03;;;1.03;;
3979;SDS011;2004;52.452;13.120;2022-12-29T07:10:24;1.03;;;0.97;;
3979;SDS011;2004;52.452;13.120;2022-12-29T07:18:15;1.10;;;1.10;;
3979;SDS011;2004;52.452;13.120;2022-12-29T07:26:07;1.30;;;1.20;;
3979;SDS011;2004;52.452;13.120;2022-12-29T07:33:59;1.03;;;1.00;;
3979;SDS011;2004;52.452;13.120;2022-12-29T07:41:50;1.10;;;1.00;;
3979;SDS011;2004;52.452;13.120;2022-12-29T07:49:40;2.30;;;0.93;;
3979;SDS011;2004;52.452;13.120;2022-12-29T07:57:31;1.17;;;1.07;;
3979;SDS011;2004;52.452;13.120;2022-12-29T08:05:21;1.10;;;1.00;;
3979;SDS011;2004;52.452;13.120;2022-12-29T08:13:12;2.77;;;1.10;;
3979;SDS011;2004;52.452;13.120;2022-12-29T08:21:03;1.40;;;1.17;;
3979;SDS011;2004;52.452;13.120;2022-12-29T08:28:56;2.37;;;1.37;;
3979;SDS011;2004;52.452;13.120;2022-12-29T08:36:47;1.17;;;1.17;;
3979;SDS011;2004;52.452;13.120;2022-12-29T08:44:38;2.40;;;1.20;;
3979;SDS011;2004;52.452;13.120;2022-12-29T08:52:29;1.33;;;1.03;;
3979;SDS011;2004;52.452;13.120;2022-12-29T09:00:20;6.07;;;1.30;;
3979;SDS011;2004;52.452;13.120;2022-12-29T09:08:12;1.43;;;1.23;;
3979;SDS011;2004;52.452;13.120;2022-12-29T09:16:03;1.20;;;1.10;;
3979;SDS011;2004;52.452;13.120;2022-12-29T09:23:54;1.00;;;1.00;;
3979;SDS011;2004;52.452;13.120;2022-12-29T09:31:44;1.63;;;1.10;;
3979;SDS011;2004;52.452;13.120;2022-12-29T09:39:35;1.00;;;1.00;;
3979;SDS011;2004;52.452;13.120;2022-12-29T09:47:26;1.17;;;0.97;;
3979;SDS011;2004;52.452;13.120;2022-12-29T09:55:22;1.27;;;1.07;;
3979;SDS011;2004;52.452;13.120;2022-12-29T10:03:20;1.63;;;1.07;;
3979;SDS011;2004;52.452;13.120;2022-12-29T10:27:24;2.40;;;0.83;;
3979;SDS011;2004;52.452;13.120;2022-12-29T10:35:17;1.17;;;1.00;;
3979;SDS011;2004;52.452;13.120;2022-12-29T10:51:24;2.87;;;0.93;;
3979;SDS011;2004;52.452;13.120;2022-12-29T10:59:35;8.43;;;1.23;;
3979;SDS011;2004;52.452;13.120;2022-12-29T11:07:29;2.17;;;1.07;;
3979;SDS011;2004;52.452;13.120;2022-12-29T11:15:20;1.20;;;1.10;;
3979;SDS011;2004;52.452;13.120;2022-12-29T11:23:34;1.97;;;0.90;;
3979;SDS011;2004;52.452;13.120;2022-12-29T11:31:33;0.90;;;0.90;;
3979;SDS011;2004;52.452;13.120;2022-12-29T11:39:38;1.63;;;0.90;;
3979;SDS011;2004;52.452;13.120;2022-12-29T11:47:31;1.10;;;1.00;;
3979;SDS011;2004;52.452;13.120;2022-12-29T11:55:24;1.27;;;0.73;;
3979;SDS011;2004;52.452;13.120;2022-12-29T12:03:20;1.50;;;0.90;;
3979;SDS011;2004;52.452;13.120;2022-12-29T12:11:15;1.53;;;0.80;;
3979;SDS011;2004;52.452;13.120;2022-12-29T12:19:16;1.57;;;1.00;;
3979;SDS011;2004;52.452;13.120;2022-12-29T12:35:15;0.60;;;0.60;;
3979;SDS011;2004;52.452;13.120;2022-12-29T13:25:04;0.73;;;0.73;;
3979;SDS011;2004;52.452;13.120;2022-12-29T13:41:14;0.70;;;0.70;;
3979;SDS011;2004;52.452;13.120;2022-12-29T14:05:34;1.20;;;1.10;;
3979;SDS011;2004;52.452;13.120;2022-12-29T14:13:25;3.80;;;1.20;;
3979;SDS011;2004;52.452;13.120;2022-12-29T14:37:30;3.17;;;1.00;;
3979;SDS011;2004;52.452;13.120;2022-12-29T15:01:39;1.40;;;1.30;;
3979;SDS011;2004;52.452;13.120;2022-12-29T15:09:42;3.20;;;1.30;;
3979;SDS011;2004;52.452;13.120;2022-12-29T15:17:39;4.90;;;1.27;;
3979;SDS011;2004;52.452;13.120;2022-12-29T15:25:29;3.33;;;1.20;;
3979;SDS011;2004;52.452;13.120;2022-12-29T15:33:22;5.43;;;1.37;;
3979;SDS011;2004;52.452;13.120;2022-12-29T15:41:24;3.73;;;1.63;;
3979;SDS011;2004;52.452;13.120;2022-12-29T15:49:17;2.07;;;1.50;;
3979;SDS011;2004;52.452;13.120;2022-12-29T15:57:16;4.80;;;1.00;;
3979;SDS011;2004;52.452;13.120;2022-12-29T16:05:15;1.30;;;1.00;;
3979;SDS011;2004;52.452;13.120;2022-12-29T16:21:32;1.97;;;0.90;;
3979;SDS011;2004;52.452;13.120;2022-12-29T16:29:25;4.30;;;1.20;;
3979;SDS011;2004;52.452;13.120;2022-12-29T16:37:33;1.90;;;0.80;;
3979;SDS011;2004;52.452;13.120;2022-12-29T16:53:40;2.30;;;1.10;;
3979;SDS011;2004;52.452;13.120;2022-12-29T17:01:37;1.57;;;0.90;;
3979;SDS011;2004;52.452;13.120;2022-12-29T17:09:29;2.67;;;1.17;;
3979;SDS011;2004;52.452;13.120;2022-12-29T17:17:30;2.40;;;1.30;;
3979;SDS011;2004;52.452;13.120;2022-12-29T17:33:18;2.60;;;1.00;;
3979;SDS011;2004;52.452;13.120;2022-12-29T17:41:11;2.27;;;0.80;;
3979;SDS011;2004;52.452;13.120;2022-12-29T17:49:04;2.07;;;0.73;;
3979;SDS011;2004;52.452;13.120;2022-12-29T17:56:59;1.53;;;1.07;;
3979;SDS011;2004;52.452;13.120;2022-12-29T18:04:49;1.00;;;0.80;;
3979;SDS011;2004;52.452;13.120;2022-12-29T18:12:41;1.20;;;0.90;;
3979;SDS011;2004;52.452;13.120;2022-12-29T18:20:34;1.80;;;0.80;;
3979;SDS011;2004;52.452;13.120;2022-12-29T18:28:26;2.30;;;0.80;;
3979;SDS011;2004;52.452;13.120;2022-12-29T18:36:18;1.53;;;0.83;;
3979;SDS011;2004;52.452;13.120;2022-12-29T18:44:10;1.90;;;1.00;;
3979;SDS011;2004;52.452;13.120;2022-12-29T18:52:02;3.10;;;0.90;;
3979;SDS011;2004;52.452;13.120;2022-12-29T18:59:53;5.80;;;1.17;;
3979;SDS011;2004;52.452;13.120;2022-12-29T19:07:44;1.37;;;1.13;;
3979;SDS011;2004;52.452;13.120;2022-12-29T19:15:35;2.90;;;1.40;;
3979;SDS011;2004;52.452;13.120;2022-12-29T19:23:27;1.40;;;1.30;;
3979;SDS011;2004;52.452;13.120;2022-12-29T19:31:17;1.33;;;1.13;;
3979;SDS011;2004;52.452;13.120;2022-12-29T19:39:09;5.53;;;1.40;;
3979;SDS011;2004;52.452;13.120;2022-12-29T19:47:01;3.43;;;1.37;;
3979;SDS011;2004;52.452;13.120;2022-12-29T19:54:52;5.50;;;1.23;;
3979;SDS011;2004;52.452;13.120;2022-12-29T20:02:44;1.43;;;1.20;;
3979;SDS011;2004;52.452;13.120;2022-12-29T20:10:34;2.47;;;1.50;;
3979;SDS011;2004;52.452;13.120;2022-12-29T20:18:25;2.10;;;1.27;;
3979;SDS011;2004;52.452;13.120;2022-12-29T20:26:26;3.53;;;1.10;;
3979;SDS011;2004;52.452;13.120;2022-12-29T20:34:18;4.67;;;1.27;;
3979;SDS011;2004;52.452;13.120;2022-12-29T20:42:10;1.37;;;1.27;;
3979;SDS011;2004;52.452;13.120;2022-12-29T20:50:01;4.40;;;1.20;;
3979;SDS011;2004;52.452;13.120;2022-12-29T20:57:52;3.93;;;1.50;;
3979;SDS011;2004;52.452;13.120;2022-12-29T21:05:42;2.90;;;1.20;;
3979;SDS011;2004;52.452;13.120;2022-12-29T21:13:33;2.50;;;1.10;;
3979;SDS011;2004;52.452;13.120;2022-12-29T21:21:24;2.30;;;1.50;;
3979;SDS011;2004;52.452;13.120;2022-12-29T21:29:15;4.40;;;1.40;;
3979;SDS011;2004;52.452;13.120;2022-12-29T21:37:06;3.33;;;1.40;;
3979;SDS011;2004;52.452;13.120;2022-12-29T21:44:56;1.53;;;0.93;;
3979;SDS011;2004;52.452;13.120;2022-12-29T21:53:05;1.20;;;1.00;;
3979;SDS011;2004;52.452;13.120;2022-12-29T22:00:56;3.20;;;1.50;;
3979;SDS011;2004;52.452;13.120;2022-12-29T22:09:05;1.90;;;0.87;;
3979;SDS011;2004;52.452;13.120;2022-12-29T22:17:14;4.03;;;1.40;;
3979;SDS011;2004;52.452;13.120;2022-12-29T22:25:06;6.57;;;1.20;;
3979;SDS011;2004;52.452;13.120;2022-12-29T22:32:57;1.80;;;0.93;;
3979;SDS011;2004;52.452;13.120;2022-12-29T22:40:50;2.07;;;1.10;;
3979;SDS011;2004;52.452;13.120;2022-12-29T22:48:40;4.60;;;1.27;;
3979;SDS011;2004;52.452;13.120;2022-12-29T22:56:31;5.03;;;1.83;;
3979;SDS011;2004;52.452;13.120;2022-12-29T23:04:22;2.83;;;1.20;;
3979;SDS011;2004;52.452;13.120;2022-12-29T23:12:13;4.30;;;1.37;;
3979;SDS011;2004;52.452;13.120;2022-12-29T23:20:06;4.83;;;1.30;;
3979;SDS011;2004;52.452;13.120;2022-12-29T23:27:57;5.10;;;1.47;;
3979;SDS011;2004;52.452;13.120;2022-12-29T23:35:48;3.47;;;1.30;;
3979;SDS011;2004;52.452;13.120;2022-12-29T23:43:40;2.97;;;1.33;;
3979;SDS011;2004;52.452;13.120;2022-12-29T23:51:30;6.37;;;1.33;;
3979;SDS011;2004;52.452;13.120;2022-12-29T23:59:21;1.67;;;1.00;;
